X  Fechar Dados meteorológicos de METAR da aviação     EIDW Dublin Airport
Temperatura
13°C Temperatura
13°C Ponto de orvalho
100% Umidade



Vento
3 M/S
6 MPH
10 KM/H
5 NÓS



20°
NNL
Condições atuais

Limpo Limpo
Pressão 1008.92 (hPa) - 29.79 (inHg)
Visibilidade 6.2 (milha) - 10 (km)
Aeroporto
Código do aeroporto EIDW

Localização: Dublin Airport
Distância: 17 (km)

Metar:
EIDW 140530Z 02005KT 310V050 CAVOK 13/13 Q1009 NOSIG

Hora: 14-08-2022 06:30 IST